Time;durP1;ratioP1;P1;durP2;ratioP2;P2;SDS_P1;SDS_P2;PMS_P1;PMS_P2;Temp;Humidity;BMP_temperature;BMP_pressure;BME280_temperature;BME280_humidity;BME280_pressure;Samples;Min_cycle;Max_cycle;Signal;HPM_P1;HPM_P2
2023/11/05 00:00:37;;;;;;;3.25;1.80;;;7.10;99.90;;;;;;5029329;28;20039;-67
2023/11/05 00:03:02;;;;;;;3.22;1.80;;;7.10;99.90;;;;;;5029937;28;20394;-67
2023/11/05 00:05:28;;;;;;;3.40;2.00;;;7.20;99.90;;;;;;5016916;28;20084;-67
2023/11/05 00:07:54;;;;;;;2.28;1.50;;;7.30;99.90;;;;;;5012525;28;20033;-67
2023/11/05 00:10:19;;;;;;;4.35;1.50;;;7.40;99.90;;;;;;5015621;28;20122;-67
2023/11/05 00:12:45;;;;;;;2.55;1.98;;;7.40;99.90;;;;;;5016339;28;20486;-67
2023/11/05 00:15:11;;;;;;;5.28;1.52;;;7.50;99.90;;;;;;5018151;28;20037;-67
2023/11/05 00:17:36;;;;;;;5.35;1.83;;;7.50;99.90;;;;;;5017674;28;20025;-67
2023/11/05 00:20:07;;;;;;;2.65;1.65;;;7.40;99.90;;;;;;5017861;28;20049;-67
2023/11/05 00:22:33;;;;;;;4.38;2.28;;;7.40;99.90;;;;;;5015868;28;20137;-67
2023/11/05 00:24:59;;;;;;;5.50;2.05;;;7.40;99.90;;;;;;5012685;28;20037;-67
2023/11/05 00:27:24;;;;;;;6.10;2.20;;;7.50;99.90;;;;;;5013314;28;20079;-67
2023/11/05 00:29:50;;;;;;;2.97;1.98;;;7.50;99.90;;;;;;5017753;28;20150;-67
2023/11/05 00:32:15;;;;;;;4.22;1.77;;;7.60;99.90;;;;;;5018312;28;20022;-66
2023/11/05 00:34:41;;;;;;;2.20;1.45;;;7.60;99.90;;;;;;5019785;28;20045;-67
2023/11/05 00:37:07;;;;;;;6.00;1.60;;;7.70;99.90;;;;;;5014577;28;20136;-67
2023/11/05 00:39:33;;;;;;;3.95;1.85;;;7.70;99.90;;;;;;5017133;28;20043;-67
2023/11/05 00:41:58;;;;;;;2.83;1.88;;;7.70;99.90;;;;;;5017808;28;20505;-67
2023/11/05 00:44:24;;;;;;;3.20;1.73;;;7.80;99.90;;;;;;5017315;28;20079;-67
2023/11/05 00:46:49;;;;;;;4.25;1.85;;;7.90;99.90;;;;;;5015914;28;20401;-67
2023/11/05 00:49:15;;;;;;;2.25;1.48;;;8.00;99.90;;;;;;5017621;28;20029;-67
2023/11/05 00:51:40;;;;;;;2.10;1.42;;;8.00;99.90;;;;;;5017599;28;20049;-67
2023/11/05 00:54:06;;;;;;;2.90;1.55;;;8.10;99.90;;;;;;5017523;28;20037;-67
2023/11/05 00:56:32;;;;;;;3.50;2.00;;;8.10;99.90;;;;;;5017216;28;20032;-67
2023/11/05 00:58:57;;;;;;;3.53;1.90;;;8.10;99.90;;;;;;5015829;28;20575;-66
2023/11/05 01:01:23;;;;;;;3.13;1.45;;;8.10;99.90;;;;;;5016779;28;20037;-67
2023/11/05 01:03:48;;;;;;;2.95;1.55;;;8.10;99.90;;;;;;5010269;28;20513;-67
2023/11/05 01:06:14;;;;;;;2.58;1.40;;;8.20;99.90;;;;;;5016249;28;20037;-67
2023/11/05 01:08:39;;;;;;;2.17;1.50;;;8.20;99.90;;;;;;5017274;28;20048;-67
2023/11/05 01:11:05;;;;;;;4.10;1.70;;;8.20;99.90;;;;;;5017408;28;20045;-67
2023/11/05 01:13:30;;;;;;;2.42;1.38;;;8.20;99.90;;;;;;5016587;28;20405;-67
2023/11/05 01:15:56;;;;;;;3.28;1.65;;;8.20;99.90;;;;;;5019452;28;20628;-67
2023/11/05 01:18:22;;;;;;;3.65;1.40;;;8.30;99.90;;;;;;5017171;28;20032;-67
2023/11/05 01:20:47;;;;;;;2.95;1.90;;;8.20;99.90;;;;;;5017013;28;20424;-67
2023/11/05 01:23:13;;;;;;;2.22;1.58;;;8.20;99.90;;;;;;5013089;28;20356;-68
2023/11/05 01:25:38;;;;;;;2.20;1.30;;;8.30;99.90;;;;;;5016315;28;20056;-68
2023/11/05 01:28:04;;;;;;;1.83;1.20;;;8.30;99.90;;;;;;5017181;28;20395;-66
2023/11/05 01:30:29;;;;;;;1.80;1.40;;;8.40;99.90;;;;;;5018441;28;20033;-68
2023/11/05 01:32:55;;;;;;;2.40;1.55;;;8.40;99.90;;;;;;5018024;28;20517;-68
2023/11/05 01:35:20;;;;;;;4.68;1.92;;;8.40;99.90;;;;;;5016794;28;20457;-68
2023/11/05 01:37:46;;;;;;;1.90;1.35;;;8.40;99.90;;;;;;5013515;28;20104;-67
2023/11/05 01:40:12;;;;;;;2.63;1.30;;;8.50;99.90;;;;;;5015551;28;20437;-68
2023/11/05 01:42:37;;;;;;;3.75;1.33;;;8.50;99.90;;;;;;5008437;28;20028;-66
2023/11/05 01:45:03;;;;;;;1.42;1.20;;;8.50;99.90;;;;;;5014783;28;20030;-68
2023/11/05 01:47:28;;;;;;;2.03;1.30;;;8.50;99.90;;;;;;5017159;28;20363;-69
2023/11/05 01:49:54;;;;;;;2.15;1.33;;;8.60;99.90;;;;;;5018880;28;20491;-69
2023/11/05 01:52:21;;;;;;;2.60;1.60;;;8.60;99.90;;;;;;5020881;28;20098;-68
2023/11/05 01:54:47;;;;;;;1.58;1.25;;;8.60;99.90;;;;;;5020602;28;20029;-67
2023/11/05 01:57:13;;;;;;;4.30;1.30;;;8.70;99.90;;;;;;5021271;28;20028;-67
2023/11/05 01:59:39;;;;;;;3.60;1.40;;;8.70;99.90;;;;;;5022466;28;20036;-67
2023/11/05 02:02:07;;;;;;;3.63;1.90;;;8.80;99.90;;;;;;5016027;28;20382;-67
2023/11/05 02:04:33;;;;;;;3.58;1.73;;;8.80;99.90;;;;;;5020665;28;20189;-68
2023/11/05 02:06:59;;;;;;;4.88;2.20;;;8.80;99.90;;;;;;5020136;28;20087;-69
2023/11/05 02:09:24;;;;;;;5.85;1.90;;;8.80;99.90;;;;;;5020212;28;20416;-68
2023/11/05 02:11:50;;;;;;;6.22;2.00;;;8.80;99.90;;;;;;5015592;28;20044;-67
2023/11/05 02:14:15;;;;;;;8.98;2.42;;;8.80;99.90;;;;;;5021718;28;20445;-67
2023/11/05 02:16:41;;;;;;;5.20;2.40;;;8.80;99.90;;;;;;5018362;28;20033;-67
2023/11/05 02:19:07;;;;;;;9.63;2.60;;;8.80;99.90;;;;;;5031674;28;20025;-67
2023/11/05 02:21:58;;;;;;;6.10;2.47;;;8.80;99.90;;;;;;5018010;28;20112;-66
2023/11/05 02:24:25;;;;;;;5.88;2.70;;;8.80;99.90;;;;;;4992403;28;20121;-68
2023/11/05 02:27:00;;;;;;;10.73;2.63;;;8.70;99.90;;;;;;5027437;28;20170;-68
2023/11/05 02:29:25;;;;;;;8.73;3.65;;;8.70;99.90;;;;;;5030576;28;20034;-68
2023/11/05 02:31:51;;;;;;;8.70;3.15;;;8.60;99.90;;;;;;5026652;28;20041;-68
2023/11/05 02:34:17;;;;;;;9.70;3.45;;;8.60;99.90;;;;;;5031682;28;20104;-68
2023/11/05 02:36:43;;;;;;;13.68;3.97;;;8.60;99.90;;;;;;5019870;28;20037;-67
2023/11/05 02:39:09;;;;;;;8.20;3.15;;;8.60;99.90;;;;;;5012429;28;20030;-68
2023/11/05 02:41:34;;;;;;;8.65;4.00;;;8.50;99.90;;;;;;5030686;28;20022;-68
2023/11/05 02:44:00;;;;;;;11.48;3.85;;;8.50;99.90;;;;;;5031375;28;20033;-68
2023/11/05 02:46:25;;;;;;;14.27;3.70;;;8.50;99.90;;;;;;5022962;28;20025;-68
2023/11/05 02:48:51;;;;;;;8.98;2.88;;;8.50;99.90;;;;;;5028017;28;20389;-68
2023/11/05 02:51:16;;;;;;;10.18;2.75;;;8.50;99.90;;;;;;5029913;28;20405;-68
2023/11/05 02:53:41;;;;;;;8.93;2.83;;;8.40;99.90;;;;;;5024792;28;20049;-67
2023/11/05 02:56:08;;;;;;;10.02;3.35;;;8.50;99.90;;;;;;5027489;28;20025;-67
2023/11/05 02:58:33;;;;;;;7.07;2.78;;;8.50;99.90;;;;;;5031354;28;20101;-68
2023/11/05 03:00:59;;;;;;;9.88;2.95;;;8.50;99.90;;;;;;5014896;28;20113;-68
2023/11/05 03:03:24;;;;;;;11.20;3.42;;;8.50;99.90;;;;;;5029641;28;20160;-68
2023/11/05 03:05:50;;;;;;;14.73;3.70;;;8.50;99.90;;;;;;5031070;28;20416;-68
2023/11/05 03:08:15;;;;;;;8.13;2.75;;;8.50;99.90;;;;;;5029262;28;20080;-68
2023/11/05 03:10:41;;;;;;;11.82;3.20;;;8.40;99.90;;;;;;5028509;28;20036;-68
2023/11/05 03:13:06;;;;;;;14.30;3.45;;;8.50;99.90;;;;;;5029936;28;20405;-68
2023/11/05 03:15:32;;;;;;;7.32;2.65;;;8.40;99.90;;;;;;5014888;28;20116;-67
2023/11/05 03:17:58;;;;;;;8.23;2.20;;;8.40;99.90;;;;;;5028580;28;20268;-68
2023/11/05 03:20:23;;;;;;;6.03;2.75;;;8.40;99.90;;;;;;5021941;28;20049;-68
2023/11/05 03:22:49;;;;;;;6.47;1.90;;;8.40;99.90;;;;;;5029743;28;20154;-67
2023/11/05 03:25:14;;;;;;;4.18;1.70;;;8.40;99.90;;;;;;5031126;28;20026;-67
2023/11/05 03:27:40;;;;;;;5.07;2.05;;;8.40;99.90;;;;;;5015689;28;20140;-68
2023/11/05 03:30:06;;;;;;;5.43;2.10;;;8.40;99.90;;;;;;5024214;28;20034;-67
2023/11/05 03:32:32;;;;;;;5.68;2.00;;;8.40;99.90;;;;;;5013856;28;20083;-67
2023/11/05 03:34:58;;;;;;;9.70;2.83;;;8.40;99.90;;;;;;5028264;28;20452;-68
2023/11/05 03:37:24;;;;;;;9.38;2.40;;;8.40;99.90;;;;;;5010238;28;20113;-67
2023/11/05 03:39:49;;;;;;;13.10;3.03;;;8.40;99.90;;;;;;5029498;28;20036;-68
2023/11/05 03:42:15;;;;;;;14.88;3.30;;;8.40;99.90;;;;;;5030353;28;20504;-68
2023/11/05 03:44:41;;;;;;;11.45;2.63;;;8.40;99.90;;;;;;5023952;28;20029;-67
2023/11/05 03:47:07;;;;;;;6.00;2.30;;;8.40;99.90;;;;;;5030413;28;20033;-68
2023/11/05 03:49:32;;;;;;;8.10;2.45;;;8.40;99.90;;;;;;5021292;28;20456;-67
2023/11/05 03:51:59;;;;;;;15.25;3.08;;;8.40;99.90;;;;;;5029973;28;20131;-67
2023/11/05 03:54:24;;;;;;;7.80;2.22;;;8.40;99.90;;;;;;5021183;28;20113;-67
2023/11/05 03:56:50;;;;;;;7.90;2.72;;;8.40;99.90;;;;;;5010684;28;20109;-67
2023/11/05 03:59:16;;;;;;;9.25;2.65;;;8.40;99.90;;;;;;5025592;28;20026;-67
2023/11/05 04:01:41;;;;;;;6.78;2.55;;;8.40;99.90;;;;;;5030081;28;20025;-68
2023/11/05 04:04:10;;;;;;;10.88;3.22;;;8.40;99.90;;;;;;5029648;28;20644;-67
2023/11/05 04:06:35;;;;;;;13.60;2.50;;;8.40;99.90;;;;;;5029751;28;20025;-67
2023/11/05 04:09:01;;;;;;;13.35;2.63;;;8.40;99.90;;;;;;5010727;28;20037;-68
2023/11/05 04:11:27;;;;;;;4.20;2.00;;;8.40;99.90;;;;;;5029346;28;20057;-68
2023/11/05 04:13:52;;;;;;;8.93;2.28;;;8.40;99.90;;;;;;5028935;28;20028;-65
2023/11/05 04:16:18;;;;;;;8.13;2.60;;;8.40;99.90;;;;;;5027140;28;20029;-65
2023/11/05 04:18:46;;;;;;;8.23;2.40;;;8.40;99.90;;;;;;5029495;28;20053;-65
2023/11/05 04:21:12;;;;;;;5.22;2.10;;;8.40;99.90;;;;;;5027368;28;20025;-65
2023/11/05 04:23:39;;;;;;;9.68;2.80;;;8.40;99.90;;;;;;5029467;28;20029;-65
2023/11/05 04:26:05;;;;;;;9.32;2.13;;;8.40;99.90;;;;;;5026165;28;20053;-66
2023/11/05 04:28:31;;;;;;;6.15;2.40;;;8.40;99.90;;;;;;5029406;28;20037;-66
2023/11/05 04:30:57;;;;;;;12.63;2.47;;;8.30;99.90;;;;;;5023326;28;20034;-66
2023/11/05 04:33:22;;;;;;;7.30;2.10;;;8.30;99.90;;;;;;5028037;28;20059;-65
2023/11/05 04:35:48;;;;;;;9.88;2.88;;;8.20;99.90;;;;;;5023458;28;20061;-65
2023/11/05 04:38:13;;;;;;;5.93;1.98;;;8.30;99.90;;;;;;5026812;28;20028;-66
2023/11/05 04:40:39;;;;;;;5.13;2.00;;;8.30;99.90;;;;;;5022511;28;20045;-66
2023/11/05 04:43:04;;;;;;;5.03;1.70;;;8.30;99.90;;;;;;5029250;28;20026;-66
2023/11/05 04:45:34;;;;;;;2.75;1.38;;;8.40;99.90;;;;;;5021119;28;20030;-66
2023/11/05 04:48:00;;;;;;;2.05;1.30;;;8.40;99.90;;;;;;5009442;28;20040;-66
2023/11/05 04:50:25;;;;;;;3.75;1.65;;;8.40;99.90;;;;;;5028171;28;20041;-66
2023/11/05 04:52:54;;;;;;;4.97;1.58;;;8.50;99.90;;;;;;5009791;28;20375;-66
2023/11/05 04:55:20;;;;;;;4.30;1.85;;;8.50;99.90;;;;;;5028068;28;20063;-66
2023/11/05 04:57:46;;;;;;;2.58;1.50;;;8.50;99.90;;;;;;5009816;28;20425;-66
2023/11/05 05:00:12;;;;;;;6.40;2.08;;;8.50;99.90;;;;;;5026296;28;20026;-65
2023/11/05 05:02:38;;;;;;;5.35;1.60;;;8.50;99.90;;;;;;5009743;28;20030;-66
2023/11/05 05:05:04;;;;;;;5.90;1.33;;;8.60;99.90;;;;;;5027841;28;20030;-65
2023/11/05 05:07:29;;;;;;;2.63;1.58;;;8.60;99.90;;;;;;5028834;28;20039;-66
2023/11/05 05:09:55;;;;;;;4.10;1.50;;;8.50;99.90;;;;;;5016048;28;20033;-66
2023/11/05 05:12:21;;;;;;;4.25;2.03;;;8.60;99.90;;;;;;5028789;28;20388;-66
2023/11/05 05:14:50;;;;;;;3.65;1.33;;;8.60;99.90;;;;;;5014848;28;20726;-65
2023/11/05 05:17:17;;;;;;;3.20;1.27;;;8.60;99.90;;;;;;5028759;28;20504;-65
2023/11/05 05:19:44;;;;;;;2.53;1.60;;;8.60;99.90;;;;;;5013872;28;20048;-65
2023/11/05 05:22:10;;;;;;;2.72;1.23;;;8.60;99.90;;;;;;5028677;28;20452;-66
2023/11/05 05:24:35;;;;;;;2.15;1.15;;;8.60;99.90;;;;;;5012923;28;20061;-65
2023/11/05 05:27:01;;;;;;;3.38;1.30;;;8.60;99.90;;;;;;5028637;28;20083;-65
2023/11/05 05:29:26;;;;;;;2.25;1.20;;;8.60;99.90;;;;;;5010173;28;20041;-65
2023/11/05 05:31:52;;;;;;;1.48;1.00;;;8.60;99.90;;;;;;5028399;28;20033;-66
2023/11/05 05:34:17;;;;;;;5.85;1.70;;;8.60;99.90;;;;;;5010476;28;20441;-65
2023/11/05 05:36:43;;;;;;;1.20;1.10;;;8.60;99.90;;;;;;5012892;28;20054;-66
2023/11/05 05:39:08;;;;;;;1.85;1.33;;;8.60;99.90;;;;;;5026156;28;20029;-66
2023/11/05 05:41:34;;;;;;;2.08;1.30;;;8.70;99.90;;;;;;5028262;28;20029;-65
2023/11/05 05:43:59;;;;;;;2.40;1.00;;;8.70;99.90;;;;;;5009201;28;20053;-65
2023/11/05 05:46:25;;;;;;;1.25;1.10;;;8.60;99.90;;;;;;5027502;28;20030;-65
2023/11/05 05:48:50;;;;;;;1.88;1.15;;;8.60;99.90;;;;;;5028230;28;20025;-65
2023/11/05 05:51:17;;;;;;;2.88;1.10;;;8.60;99.90;;;;;;5026436;28;20043;-65
2023/11/05 05:53:43;;;;;;;1.20;1.00;;;8.60;99.90;;;;;;5028061;28;20532;-66
2023/11/05 05:56:09;;;;;;;3.08;1.23;;;8.50;99.90;;;;;;5025435;28;20124;-65
2023/11/05 05:58:35;;;;;;;4.88;1.45;;;8.50;99.90;;;;;;5028129;28;20052;-65
2023/11/05 06:01:00;;;;;;;1.85;1.30;;;8.50;99.90;;;;;;5021263;28;20107;-66
2023/11/05 06:03:26;;;;;;;1.90;1.58;;;8.50;99.90;;;;;;5027915;28;20179;-66
2023/11/05 06:05:51;;;;;;;5.10;1.40;;;8.50;99.90;;;;;;5022852;28;20030;-66
2023/11/05 06:08:17;;;;;;;3.45;1.58;;;8.50;99.90;;;;;;5028021;28;20336;-66
2023/11/05 06:10:43;;;;;;;2.78;1.60;;;8.50;99.90;;;;;;5021657;28;20038;-66
2023/11/05 06:13:08;;;;;;;2.80;1.38;;;8.50;99.90;;;;;;5028060;28;20060;-66
2023/11/05 06:15:34;;;;;;;3.17;1.65;;;8.50;99.90;;;;;;5020532;28;20497;-66
2023/11/05 06:17:59;;;;;;;5.80;1.80;;;8.40;99.90;;;;;;5027658;28;20033;-65
2023/11/05 06:20:25;;;;;;;8.55;2.78;;;8.40;99.90;;;;;;5019020;28;20506;-66
2023/11/05 06:22:55;;;;;;;10.48;2.75;;;8.30;99.90;;;;;;5008640;28;20113;-65
2023/11/05 06:25:20;;;;;;;11.55;2.75;;;8.30;99.90;;;;;;5027700;28;20076;-65
2023/11/05 06:27:46;;;;;;;8.18;2.30;;;8.30;99.90;;;;;;5008568;28;20437;-66
2023/11/05 06:30:11;;;;;;;8.93;2.33;;;8.20;99.90;;;;;;5024953;28;20036;-66
2023/11/05 06:32:38;;;;;;;9.88;2.88;;;8.20;99.90;;;;;;5008491;28;20030;-66
2023/11/05 06:35:04;;;;;;;6.47;2.13;;;8.10;99.90;;;;;;5025589;28;20048;-66
2023/11/05 06:37:30;;;;;;;7.80;2.65;;;8.10;99.90;;;;;;5008759;28;20041;-65
2023/11/05 06:39:57;;;;;;;14.40;3.20;;;8.10;99.90;;;;;;5030508;28;20025;-66
2023/11/05 06:42:22;;;;;;;12.40;3.35;;;8.00;99.90;;;;;;5031864;28;20510;-66
2023/11/05 06:44:48;;;;;;;14.27;3.78;;;8.00;99.90;;;;;;5016089;28;20052;-65
2023/11/05 06:47:13;;;;;;;11.27;3.30;;;8.10;99.90;;;;;;5031355;28;20025;-66
2023/11/05 06:49:39;;;;;;;5.72;2.53;;;8.20;99.90;;;;;;5016037;28;20026;-66
2023/11/05 06:52:05;;;;;;;6.85;2.67;;;8.20;99.90;;;;;;5031183;28;20041;-66
2023/11/05 06:54:30;;;;;;;5.75;2.38;;;8.30;99.90;;;;;;5014776;28;20017;-65
2023/11/05 06:56:57;;;;;;;3.85;2.08;;;8.30;99.90;;;;;;5031083;28;20021;-65
2023/11/05 06:59:23;;;;;;;3.58;1.83;;;8.40;99.90;;;;;;5012166;28;20086;-65
2023/11/05 07:01:49;;;;;;;6.10;1.90;;;8.40;99.90;;;;;;5017624;28;20039;-67
2023/11/05 07:04:15;;;;;;;3.88;1.85;;;8.40;99.90;;;;;;5015020;28;20470;-67
2023/11/05 07:06:40;;;;;;;4.55;1.85;;;8.40;99.90;;;;;;5017691;28;20048;-66
2023/11/05 07:09:07;;;;;;;3.08;1.60;;;8.50;99.90;;;;;;5017616;28;20490;-66
2023/11/05 07:11:32;;;;;;;3.00;1.52;;;8.60;99.90;;;;;;5014192;28;20112;-65
2023/11/05 07:13:58;;;;;;;4.18;1.60;;;8.80;99.90;;;;;;5011781;28;20112;-67
2023/11/05 07:16:25;;;;;;;3.42;1.48;;;8.90;99.90;;;;;;5017306;28;20017;-66
2023/11/05 07:18:51;;;;;;;5.05;1.70;;;8.90;99.90;;;;;;5014976;28;20434;-65
2023/11/05 07:21:16;;;;;;;6.78;2.28;;;9.00;99.90;;;;;;5013569;28;20362;-65
2023/11/05 07:23:42;;;;;;;8.80;2.58;;;9.10;99.90;;;;;;5015093;28;20032;-66
2023/11/05 07:26:07;;;;;;;8.30;2.83;;;9.20;99.90;;;;;;5013389;28;20022;-66
2023/11/05 07:28:33;;;;;;;5.75;2.05;;;9.20;99.90;;;;;;5019543;28;20087;-66
2023/11/05 07:30:58;;;;;;;7.55;2.25;;;9.40;99.90;;;;;;5017307;28;20029;-66
2023/11/05 07:33:24;;;;;;;9.60;2.10;;;9.50;99.90;;;;;;5013378;28;20029;-67
2023/11/05 07:35:49;;;;;;;3.08;1.63;;;9.60;99.90;;;;;;5015384;28;20080;-66
2023/11/05 07:38:15;;;;;;;3.17;1.80;;;9.70;99.90;;;;;;5007608;28;20398;-66
2023/11/05 07:40:41;;;;;;;7.18;2.38;;;9.70;99.90;;;;;;5014260;28;20084;-67
2023/11/05 07:43:06;;;;;;;5.97;2.15;;;9.80;99.90;;;;;;5007655;28;20032;-66
2023/11/05 07:45:32;;;;;;;3.97;2.20;;;9.80;99.90;;;;;;5016926;28;20032;-66
2023/11/05 07:47:58;;;;;;;4.25;1.63;;;9.90;99.90;;;;;;5011275;28;20041;-66
2023/11/05 07:50:25;;;;;;;5.22;1.70;;;10.10;99.90;;;;;;5015372;28;20099;-65
2023/11/05 07:52:51;;;;;;;5.25;1.92;;;10.40;99.90;;;;;;5013699;28;20021;-66
2023/11/05 07:55:16;;;;;;;7.07;2.47;;;10.60;99.90;;;;;;5012179;28;20065;-65
2023/11/05 07:57:43;;;;;;;4.30;1.98;;;10.90;99.90;;;;;;5013604;28;20333;-66
2023/11/05 08:00:17;;;;;;;3.72;1.77;;;11.30;99.90;;;;;;5008573;28;20014;-67
2023/11/05 08:02:43;;;;;;;5.10;2.17;;;11.60;99.90;;;;;;5010154;28;20018;-66
2023/11/05 08:05:08;;;;;;;5.22;2.15;;;11.90;99.90;;;;;;5015907;28;20086;-67
2023/11/05 08:07:34;;;;;;;3.70;1.92;;;11.90;99.90;;;;;;5013289;28;20026;-66
2023/11/05 08:10:00;;;;;;;5.53;1.85;;;11.80;99.90;;;;;;5015331;28;20024;-66
2023/11/05 08:12:26;;;;;;;4.70;1.50;;;11.60;99.90;;;;;;5012235;28;20029;-67
2023/11/05 08:14:52;;;;;;;5.75;2.38;;;11.50;99.90;;;;;;5016047;28;20022;-66
2023/11/05 08:17:17;;;;;;;4.40;1.80;;;11.30;99.90;;;;;;5013844;28;20048;-66
2023/11/05 08:19:43;;;;;;;3.70;1.88;;;11.20;99.90;;;;;;5010923;28;20029;-66
2023/11/05 08:22:10;;;;;;;3.63;1.77;;;11.10;99.90;;;;;;5014299;28;20084;-67
2023/11/05 08:24:36;;;;;;;5.78;2.45;;;11.00;99.90;;;;;;5015132;28;20068;-67
2023/11/05 08:27:02;;;;;;;5.70;2.08;;;10.90;99.90;;;;;;5012740;28;20689;-67
2023/11/05 08:29:27;;;;;;;4.90;2.20;;;10.90;99.90;;;;;;5015635;28;20579;-66
2023/11/05 08:31:53;;;;;;;3.40;1.70;;;10.80;99.90;;;;;;5017448;28;20458;-67
2023/11/05 08:34:19;;;;;;;4.75;2.28;;;10.90;99.90;;;;;;5013271;28;20137;-67
2023/11/05 08:36:45;;;;;;;4.10;1.50;;;10.90;99.90;;;;;;5007747;28;20041;-66
2023/11/05 08:39:11;;;;;;;3.42;1.55;;;11.00;99.90;;;;;;5013697;28;20021;-66
2023/11/05 08:41:36;;;;;;;3.30;1.65;;;11.00;99.90;;;;;;5010924;28;20037;-66
2023/11/05 08:44:02;;;;;;;3.33;1.50;;;11.00;99.90;;;;;;5015404;28;20037;-66
2023/11/05 08:46:29;;;;;;;2.65;1.35;;;11.10;99.90;;;;;;5013269;28;20029;-66
2023/11/05 08:48:54;;;;;;;4.40;1.67;;;11.10;99.90;;;;;;5013951;28;20026;-66
2023/11/05 08:51:27;;;;;;;3.78;1.60;;;11.00;99.90;;;;;;5016154;28;20443;-66
2023/11/05 08:53:53;;;;;;;9.73;2.25;;;11.00;99.90;;;;;;5010218;28;20022;-69
2023/11/05 08:56:20;;;;;;;6.95;2.25;;;10.90;99.90;;;;;;5000442;28;20036;-67
2023/11/05 08:58:46;;;;;;;2.67;1.48;;;10.90;99.90;;;;;;5000065;28;20045;-66
2023/11/05 09:01:12;;;;;;;1.55;1.20;;;10.90;99.90;;;;;;5009007;28;20400;-67
2023/11/05 09:03:37;;;;;;;2.72;1.40;;;10.80;99.90;;;;;;5003988;28;20050;-67
2023/11/05 09:06:03;;;;;;;3.45;1.50;;;10.70;99.90;;;;;;5006633;28;20531;-66
2023/11/05 09:08:29;;;;;;;5.90;2.45;;;10.70;99.90;;;;;;5007507;28;20021;-67
2023/11/05 09:10:54;;;;;;;4.65;1.98;;;10.60;99.90;;;;;;5007135;28;20032;-66
2023/11/05 09:13:20;;;;;;;7.00;2.38;;;10.50;99.90;;;;;;5006524;28;20021;-66
2023/11/05 09:15:49;;;;;;;8.00;2.70;;;10.50;99.90;;;;;;5008812;28;20030;-67
2023/11/05 09:18:18;;;;;;;6.18;2.63;;;10.40;99.90;;;;;;5006447;28;20068;-67
2023/11/05 09:20:43;;;;;;;9.15;3.35;;;10.30;99.90;;;;;;5005730;28;20567;-68
2023/11/05 09:23:09;;;;;;;7.18;3.05;;;10.30;99.90;;;;;;5007201;28;20034;-67
2023/11/05 09:25:34;;;;;;;7.85;2.60;;;10.30;99.90;;;;;;5009531;28;20084;-67
2023/11/05 09:28:01;;;;;;;5.45;2.42;;;10.20;99.90;;;;;;5009577;28;20760;-67
2023/11/05 09:30:27;;;;;;;7.60;2.03;;;10.30;99.90;;;;;;5006976;28;20128;-67
2023/11/05 09:32:52;;;;;;;4.95;2.65;;;10.30;99.90;;;;;;5009866;28;20686;-66
2023/11/05 09:35:18;;;;;;;9.82;2.70;;;10.40;99.90;;;;;;5008573;28;20122;-67
2023/11/05 09:37:44;;;;;;;7.90;2.25;;;10.50;99.90;;;;;;5001311;28;20375;-66
2023/11/05 09:40:15;;;;;;;6.93;3.53;;;10.50;99.90;;;;;;5008785;28;20072;-66
2023/11/05 09:42:58;;;;;;;7.85;3.42;;;10.60;99.90;;;;;;5007640;28;20030;-67
2023/11/05 09:45:26;;;;;;;10.40;4.18;;;10.60;99.90;;;;;;5009875;28;20472;-67
2023/11/05 09:47:53;;;;;;;8.25;4.30;;;10.60;99.90;;;;;;5005015;28;20096;-66
2023/11/05 09:50:18;;;;;;;12.43;4.28;;;10.60;99.90;;;;;;5005862;28;20097;-66
2023/11/05 09:52:44;;;;;;;6.28;2.83;;;10.60;99.90;;;;;;5008868;28;20545;-66
2023/11/05 09:55:10;;;;;;;5.93;2.30;;;10.70;99.90;;;;;;5006641;28;20034;-66
2023/11/05 09:57:36;;;;;;;6.40;2.10;;;10.70;99.90;;;;;;5000904;28;20521;-67
2023/11/05 10:00:04;;;;;;;4.65;2.33;;;10.70;99.90;;;;;;5003689;28;20073;-67
2023/11/05 10:02:51;;;;;;;2.85;1.73;;;10.70;99.90;;;;;;5002623;28;20704;-67
2023/11/05 10:05:17;;;;;;;3.05;1.58;;;10.70;99.90;;;;;;5001673;28;20037;-66
2023/11/05 10:07:42;;;;;;;4.00;1.50;;;10.80;99.90;;;;;;5001064;28;20116;-66
2023/11/05 10:10:08;;;;;;;3.50;1.30;;;10.90;99.90;;;;;;5011306;28;20722;-67
2023/11/05 10:12:34;;;;;;;2.45;1.63;;;10.90;99.90;;;;;;5006984;28;20029;-66
2023/11/05 10:14:59;;;;;;;1.92;1.25;;;10.90;99.90;;;;;;5009780;28;20394;-68
2023/11/05 10:17:25;;;;;;;2.30;1.17;;;11.00;99.90;;;;;;5006659;28;20026;-70
2023/11/05 10:19:51;;;;;;;2.55;1.00;;;11.00;99.90;;;;;;5001249;28;20101;-68
2023/11/05 10:22:16;;;;;;;4.28;1.30;;;11.00;99.90;;;;;;5007695;28;20030;-69
2023/11/05 10:24:45;;;;;;;1.80;1.10;;;11.00;99.90;;;;;;5010602;28;20034;-69
2023/11/05 10:27:11;;;;;;;3.25;1.23;;;11.00;99.90;;;;;;5010421;28;20034;-69
2023/11/05 10:29:37;;;;;;;1.80;1.20;;;11.10;99.90;;;;;;5009838;28;20474;-68
2023/11/05 10:32:04;;;;;;;2.45;1.52;;;11.10;99.90;;;;;;5007160;28;20041;-67
2023/11/05 10:34:31;;;;;;;3.65;1.48;;;11.10;99.90;;;;;;5006135;28;20034;-69
2023/11/05 10:36:56;;;;;;;2.15;1.10;;;11.20;99.90;;;;;;5008242;28;20044;-66
2023/11/05 10:39:22;;;;;;;2.15;1.02;;;11.40;99.90;;;;;;5007770;28;20101;-69
2023/11/05 10:41:50;;;;;;;3.58;1.40;;;11.50;99.90;;;;;;5007346;28;20410;-68
2023/11/05 10:44:18;;;;;;;1.38;1.02;;;11.50;99.90;;;;;;5011130;28;20033;-69
2023/11/05 10:46:44;;;;;;;3.78;1.45;;;11.60;99.90;;;;;;5015300;28;20075;-68
2023/11/05 10:49:12;;;;;;;1.15;0.95;;;11.70;99.90;;;;;;5006638;28;20022;-67
2023/11/05 10:51:38;;;;;;;1.58;1.00;;;11.70;99.90;;;;;;5011320;28;20034;-68
2023/11/05 10:54:05;;;;;;;2.83;1.08;;;11.80;99.90;;;;;;5006365;28;20114;-68
2023/11/05 10:56:33;;;;;;;4.00;1.10;;;11.90;99.90;;;;;;5008948;28;20021;-67
2023/11/05 10:58:59;;;;;;;2.42;1.30;;;12.00;99.90;;;;;;5006256;28;20031;-69
2023/11/05 11:01:29;;;;;;;1.35;0.80;;;12.00;99.90;;;;;;5005611;28;20060;-69
2023/11/05 11:04:18;;;;;;;2.42;0.90;;;12.00;99.90;;;;;;5009985;28;20028;-68
2023/11/05 11:06:44;;;;;;;2.10;0.90;;;11.90;99.90;;;;;;5001046;28;20030;-66
2023/11/05 11:09:22;;;;;;;1.73;0.93;;;11.80;99.90;;;;;;5008029;28;20509;-68
2023/11/05 11:11:48;;;;;;;3.28;1.02;;;11.70;99.90;;;;;;5010089;28;20417;-69
2023/11/05 11:14:15;;;;;;;4.80;1.13;;;11.70;99.90;;;;;;5008246;28;20052;-67
2023/11/05 11:16:43;;;;;;;1.45;1.17;;;11.70;99.90;;;;;;5006931;28;20028;-67
2023/11/05 11:19:13;;;;;;;1.83;1.10;;;11.60;99.90;;;;;;5003505;28;20332;-66
2023/11/05 11:22:02;;;;;;;1.92;1.10;;;11.60;99.90;;;;;;5009884;28;20079;-67
2023/11/05 11:24:39;;;;;;;2.38;1.25;;;11.60;99.90;;;;;;5006326;28;20069;-68
2023/11/05 11:27:06;;;;;;;2.92;1.20;;;11.60;99.90;;;;;;5007869;28;20029;-69
2023/11/05 11:29:41;;;;;;;1.52;1.10;;;11.70;99.90;;;;;;5008571;28;20083;-67
2023/11/05 11:32:07;;;;;;;0.95;0.80;;;11.60;99.90;;;;;;5006768;28;20078;-69
2023/11/05 11:34:33;;;;;;;2.38;1.30;;;11.70;99.90;;;;;;5004931;28;20261;-68
2023/11/05 11:37:04;;;;;;;6.93;1.20;;;11.70;99.90;;;;;;5003287;28;20030;-68
2023/11/05 11:39:30;;;;;;;2.35;1.15;;;11.70;99.90;;;;;;5008051;28;20040;-69
2023/11/05 11:41:56;;;;;;;4.10;1.25;;;11.70;99.90;;;;;;5009552;28;20026;-68
2023/11/05 11:44:22;;;;;;;1.67;1.05;;;11.70;99.90;;;;;;5005770;28;20025;-69
2023/11/05 11:46:49;;;;;;;1.33;0.95;;;11.70;99.90;;;;;;5006855;28;20037;-68
2023/11/05 11:49:14;;;;;;;2.28;1.10;;;11.80;99.90;;;;;;5005755;28;20018;-68
2023/11/05 11:51:41;;;;;;;2.92;1.25;;;11.90;99.90;;;;;;5010068;28;20653;-69
2023/11/05 11:54:09;;;;;;;3.65;1.23;;;12.00;99.90;;;;;;5006073;28;20797;-69
2023/11/05 11:56:36;;;;;;;2.97;1.70;;;12.00;99.90;;;;;;5006862;28;20079;-68
2023/11/05 11:59:03;;;;;;;3.53;1.25;;;12.00;99.90;;;;;;5010918;28;20689;-68
2023/11/05 12:01:30;;;;;;;3.15;1.10;;;12.10;99.90;;;;;;5005754;28;20096;-69
2023/11/05 12:03:59;;;;;;;1.83;1.20;;;12.00;99.90;;;;;;5010477;28;20037;-69
2023/11/05 12:06:27;;;;;;;2.15;1.10;;;12.10;99.90;;;;;;5004930;28;20053;-69
2023/11/05 12:08:54;;;;;;;6.50;1.00;;;12.20;99.90;;;;;;5007722;28;20025;-68
2023/11/05 12:11:22;;;;;;;2.40;1.30;;;12.20;99.90;;;;;;5005556;28;20034;-67
2023/11/05 12:13:48;;;;;;;2.88;1.33;;;12.20;99.90;;;;;;5003798;28;20394;-67
2023/11/05 12:16:16;;;;;;;2.38;0.90;;;12.20;99.90;;;;;;4999503;28;20041;-68
2023/11/05 12:18:43;;;;;;;3.38;1.30;;;12.20;99.90;;;;;;4994647;28;20032;-69
2023/11/05 12:21:13;;;;;;;2.90;0.95;;;12.10;99.90;;;;;;5004669;28;20395;-68
2023/11/05 12:23:43;;;;;;;2.85;1.25;;;12.10;99.90;;;;;;5004997;28;20036;-68
2023/11/05 12:26:11;;;;;;;1.67;0.93;;;12.10;99.90;;;;;;5004251;28;20026;-69
2023/11/05 12:28:37;;;;;;;4.05;2.00;;;12.20;99.90;;;;;;5009609;28;20104;-68
2023/11/05 12:31:05;;;;;;;2.60;1.20;;;12.30;99.90;;;;;;5007996;28;20144;-69
2023/11/05 12:33:34;;;;;;;3.13;1.30;;;12.40;99.90;;;;;;5007165;28;20672;-68
2023/11/05 12:36:00;;;;;;;2.65;1.30;;;12.40;99.90;;;;;;5006130;28;20045;-68
2023/11/05 12:38:27;;;;;;;3.35;1.83;;;12.40;99.90;;;;;;4996584;28;20025;-68
2023/11/05 12:40:52;;;;;;;5.32;2.00;;;12.40;99.90;;;;;;4993370;28;20137;-67
2023/11/05 12:43:19;;;;;;;5.65;2.63;;;12.30;99.90;;;;;;4993118;28;20018;-68
2023/11/05 12:45:45;;;;;;;5.78;2.55;;;12.30;99.90;;;;;;4992536;28;20698;-69
2023/11/05 12:48:11;;;;;;;2.45;1.48;;;12.20;99.90;;;;;;4996454;28;20656;-69